createdAt,value
2024-04-19T00:00:28.849Z,0.20
2024-04-19T00:08:31.801Z,0.20
2024-04-19T00:11:16.792Z,0.10
2024-04-19T00:14:01.906Z,0.20
2024-04-19T00:16:47.102Z,0.15
2024-04-19T00:19:32.305Z,0.20
2024-04-19T00:22:17.660Z,0.10
2024-04-19T00:30:24.869Z,0.20
2024-04-19T00:33:14.269Z,0.17
2024-04-19T00:35:59.993Z,0.30
2024-04-19T00:38:45.041Z,0.20
2024-04-19T00:41:30.313Z,0.20
2024-04-19T00:52:38.278Z,0.10
2024-04-19T00:55:25.378Z,0.10
2024-04-19T01:01:11.828Z,0.68
2024-04-19T01:03:57.362Z,0.10
2024-04-19T01:06:43.028Z,0.25
2024-04-19T01:15:23.165Z,0.20
2024-04-19T01:18:08.576Z,0.20
2024-04-19T01:20:53.543Z,0.20
2024-04-19T01:23:38.783Z,0.30
2024-04-19T01:26:23.717Z,0.20
2024-04-19T01:37:44.953Z,0.10
2024-04-19T01:40:29.954Z,0.40
2024-04-19T01:43:14.875Z,0.40
2024-04-19T01:46:00.005Z,0.30
2024-04-19T01:48:45.215Z,0.40
2024-04-19T01:51:30.341Z,0.30
2024-04-19T01:59:33.911Z,0.70
2024-04-19T02:02:19.602Z,0.45
2024-04-19T02:05:05.645Z,0.30
2024-04-19T02:07:51.852Z,0.43
2024-04-19T02:21:45.553Z,0.40
2024-04-19T02:24:31.110Z,0.20
2024-04-19T02:27:15.896Z,0.22
2024-04-19T02:30:00.883Z,0.60
2024-04-19T02:32:46.153Z,0.52
2024-04-19T02:44:13.294Z,0.80
2024-04-19T02:46:58.241Z,0.77
2024-04-19T02:49:43.210Z,0.65
2024-04-19T02:52:28.338Z,0.75
2024-04-19T02:55:13.784Z,0.40
2024-04-19T02:57:59.013Z,0.43
2024-04-19T03:06:02.170Z,0.70
2024-04-19T03:08:46.904Z,0.80
2024-04-19T03:11:32.106Z,1.10
2024-04-19T03:14:17.079Z,0.80
2024-04-19T03:17:02.263Z,0.57
2024-04-19T03:19:47.582Z,1.08
2024-04-19T03:28:15.302Z,1.03
2024-04-19T03:31:00.243Z,1.70
2024-04-19T03:33:45.382Z,1.20
2024-04-19T03:36:30.458Z,2.08
2024-04-19T03:39:15.526Z,1.17
2024-04-19T03:42:00.496Z,1.90
2024-04-19T03:50:07.813Z,1.77
2024-04-19T03:52:52.665Z,1.42
2024-04-19T03:55:37.835Z,0.90
2024-04-19T03:58:22.759Z,1.85
2024-04-19T04:01:08.074Z,1.27
2024-04-19T04:03:54.716Z,0.60
2024-04-19T04:12:19.705Z,2.37
2024-04-19T04:15:05.815Z,1.30
2024-04-19T04:17:50.963Z,2.00
2024-04-19T04:20:36.024Z,1.60
2024-04-19T04:23:21.155Z,1.42
2024-04-19T04:26:06.242Z,1.90
2024-04-19T04:34:15.365Z,2.50
2024-04-19T04:37:00.816Z,1.83
2024-04-19T04:39:46.229Z,2.25
2024-04-19T04:42:31.030Z,2.00
2024-04-19T04:45:16.102Z,2.42
2024-04-19T04:48:01.615Z,1.42
2024-04-19T04:56:09.282Z,1.47
2024-04-19T04:58:54.740Z,1.55
2024-04-19T05:01:39.959Z,1.90
2024-04-19T05:04:25.004Z,2.30
2024-04-19T05:07:09.888Z,1.35
2024-04-19T05:18:18.300Z,1.53
2024-04-19T05:21:04.267Z,3.20
2024-04-19T05:23:49.273Z,1.85
2024-04-19T05:26:34.408Z,3.22
2024-04-19T05:29:19.750Z,2.47
2024-04-19T05:40:07.084Z,1.43
2024-04-19T05:42:53.504Z,2.60
2024-04-19T05:45:38.316Z,2.22
2024-04-19T05:48:23.760Z,2.80
2024-04-19T05:51:08.745Z,2.60
2024-04-19T06:02:15.895Z,3.07
2024-04-19T06:05:01.283Z,2.17
2024-04-19T06:07:46.465Z,1.80
2024-04-19T06:10:31.483Z,1.48
2024-04-19T06:13:16.674Z,1.67
2024-04-19T06:16:01.495Z,1.80
2024-04-19T06:24:11.705Z,2.30
2024-04-19T06:26:56.991Z,1.42
2024-04-19T06:29:42.063Z,1.75
2024-04-19T06:32:27.143Z,2.13
2024-04-19T06:35:13.412Z,1.83
2024-04-19T06:46:20.258Z,2.53
2024-04-19T06:49:05.531Z,1.80
2024-04-19T06:51:50.674Z,1.60
2024-04-19T06:54:35.965Z,2.03
2024-04-19T06:57:20.882Z,2.05
2024-04-19T07:00:16.419Z,1.70
2024-04-19T07:08:16.116Z,2.37
2024-04-19T07:11:04.347Z,2.22
2024-04-19T07:13:49.524Z,1.48
2024-04-19T07:16:36.092Z,1.38
2024-04-19T07:19:21.074Z,1.80
2024-04-19T07:30:27.718Z,1.20
2024-04-19T07:33:13.576Z,1.05
2024-04-19T07:35:58.451Z,1.70
2024-04-19T07:38:44.681Z,1.40
2024-04-19T07:41:29.657Z,1.13
2024-04-19T07:44:15.370Z,2.13
2024-04-19T07:52:26.774Z,2.13
2024-04-19T07:55:12.105Z,1.88
2024-04-19T07:57:57.206Z,2.13
2024-04-19T08:00:44.995Z,2.35
2024-04-19T08:03:30.111Z,2.13
2024-04-19T08:14:38.564Z,1.30
2024-04-19T08:17:23.407Z,1.48
2024-04-19T08:20:09.990Z,1.90
2024-04-19T08:22:54.797Z,2.30
2024-04-19T08:25:40.063Z,1.35
2024-04-19T08:28:25.781Z,1.30
2024-04-19T08:36:50.391Z,1.30
2024-04-19T08:39:35.584Z,1.60
2024-04-19T08:42:21.894Z,1.63
2024-04-19T08:45:07.289Z,1.40
2024-04-19T08:47:54.154Z,1.40
2024-04-19T08:59:44.479Z,1.88
2024-04-19T09:02:30.185Z,1.40
2024-04-19T09:05:15.502Z,1.17
2024-04-19T09:08:01.093Z,1.10
2024-04-19T09:10:46.239Z,1.42
2024-04-19T09:20:11.077Z,1.40
2024-04-19T09:22:56.102Z,0.63
2024-04-19T09:25:41.143Z,1.20
2024-04-19T09:28:28.663Z,1.02
2024-04-19T09:31:14.770Z,0.90
2024-04-19T09:42:26.023Z,0.80
2024-04-19T09:45:11.580Z,1.20
2024-04-19T09:47:58.396Z,1.27
2024-04-19T09:50:49.000Z,0.70
2024-04-19T09:53:45.360Z,0.90
2024-04-19T09:56:59.021Z,1.00
2024-04-19T10:05:11.149Z,0.67
2024-04-19T10:07:56.745Z,1.10
2024-04-19T10:10:42.528Z,0.80
2024-04-19T10:13:27.359Z,0.93
2024-04-19T10:16:12.547Z,1.50
2024-04-19T10:27:29.562Z,1.00
2024-04-19T10:30:18.671Z,1.23
2024-04-19T10:33:09.629Z,1.23
2024-04-19T10:35:54.965Z,1.00
2024-04-19T10:38:40.463Z,1.05
2024-04-19T10:41:25.965Z,1.02
2024-04-19T10:49:35.651Z,0.90
2024-04-19T10:52:20.840Z,0.90
2024-04-19T10:55:06.498Z,1.00
2024-04-19T10:57:51.594Z,1.08
2024-04-19T11:00:40.375Z,0.90
2024-04-19T11:03:26.760Z,0.60
2024-04-19T11:11:34.518Z,1.10
2024-04-19T11:14:20.010Z,0.57
2024-04-19T11:17:04.790Z,0.63
2024-04-19T11:19:49.755Z,0.40
2024-04-19T11:22:34.949Z,0.88
2024-04-19T11:25:20.111Z,0.60
2024-04-19T11:36:13.664Z,0.90
2024-04-19T11:38:59.046Z,1.10
2024-04-19T11:41:43.976Z,1.20
2024-04-19T11:44:29.342Z,0.82
2024-04-19T11:47:14.497Z,0.90
2024-04-19T11:49:59.561Z,1.20
2024-04-19T11:58:07.534Z,1.10
2024-04-19T12:00:52.927Z,0.70
2024-04-19T12:03:37.903Z,0.80
2024-04-19T12:06:23.313Z,0.80
2024-04-19T12:09:09.248Z,0.90
2024-04-19T12:15:22.196Z,1.10
2024-04-19T12:17:38.902Z,1.10
2024-04-19T12:20:35.744Z,0.90
2024-04-19T12:23:28.299Z,1.00
2024-04-19T12:26:14.813Z,0.60
2024-04-19T12:32:45.540Z,1.00
2024-04-19T12:35:30.938Z,0.70
2024-04-19T12:38:16.315Z,0.63
2024-04-19T12:41:01.553Z,1.13
2024-04-19T12:43:46.916Z,0.65
2024-04-19T12:54:49.173Z,0.85
2024-04-19T12:57:34.548Z,0.82
2024-04-19T13:00:19.882Z,0.88
2024-04-19T13:03:05.294Z,0.80
2024-04-19T13:05:50.384Z,0.85
2024-04-19T13:08:35.768Z,0.82
2024-04-19T13:16:44.854Z,1.10
2024-04-19T13:19:30.267Z,0.80
2024-04-19T13:22:15.482Z,1.13
2024-04-19T13:25:00.764Z,0.68
2024-04-19T13:27:46.010Z,1.10
2024-04-19T13:38:55.205Z,1.20
2024-04-19T13:41:40.717Z,1.27
2024-04-19T13:44:25.637Z,1.00
2024-04-19T13:47:11.048Z,0.95
2024-04-19T13:49:55.914Z,0.80
2024-04-19T13:52:41.197Z,1.10
2024-04-19T14:00:50.532Z,0.93
2024-04-19T14:03:36.094Z,0.57
2024-04-19T14:06:22.463Z,0.60
2024-04-19T14:09:07.983Z,0.65
2024-04-19T14:11:52.830Z,1.45
2024-04-19T14:23:00.176Z,2.07
2024-04-19T14:25:45.211Z,1.17
2024-04-19T14:28:30.293Z,1.05
2024-04-19T14:31:15.598Z,1.20
2024-04-19T14:34:00.685Z,1.70
2024-04-19T14:36:46.208Z,1.40
2024-04-19T14:44:53.134Z,1.17
2024-04-19T14:47:38.709Z,0.90
2024-04-19T14:50:23.814Z,1.20
2024-04-19T14:53:10.751Z,0.70
2024-04-19T14:55:56.425Z,0.82
2024-04-19T14:58:44.592Z,0.65
2024-04-19T15:07:14.589Z,0.90
2024-04-19T15:10:00.839Z,2.10
2024-04-19T15:12:45.990Z,0.80
2024-04-19T15:15:31.038Z,0.52
2024-04-19T15:18:16.106Z,0.68
2024-04-19T15:21:01.107Z,0.70
2024-04-19T15:29:08.383Z,0.40
2024-04-19T15:31:53.232Z,0.60
2024-04-19T15:34:47.091Z,0.52
2024-04-19T15:37:33.525Z,0.60
2024-04-19T15:40:19.015Z,1.05
2024-04-19T15:51:21.927Z,1.37
2024-04-19T15:54:07.108Z,1.48
2024-04-19T15:56:52.099Z,1.48
2024-04-19T15:59:37.321Z,1.00
2024-04-19T16:02:22.425Z,1.48
2024-04-19T16:05:07.823Z,0.40
2024-04-19T16:13:34.912Z,1.10
2024-04-19T16:16:20.075Z,0.50
2024-04-19T16:19:05.116Z,1.42
2024-04-19T16:21:50.114Z,0.65
2024-04-19T16:24:35.124Z,1.05
2024-04-19T16:27:20.026Z,0.80
2024-04-19T16:35:56.314Z,0.40
2024-04-19T16:38:49.109Z,0.98
2024-04-19T16:41:34.209Z,0.70
2024-04-19T16:44:19.286Z,0.50
2024-04-19T16:47:04.771Z,0.50
2024-04-19T16:58:07.131Z,1.00
2024-04-19T17:00:51.980Z,2.63
2024-04-19T17:03:37.548Z,1.25
2024-04-19T17:06:22.861Z,1.10
2024-04-19T17:09:07.798Z,1.40
2024-04-19T17:11:53.251Z,1.17
2024-04-19T17:19:56.126Z,1.10
2024-04-19T17:22:41.145Z,1.05
2024-04-19T17:25:27.399Z,1.00
2024-04-19T17:28:13.076Z,0.75
2024-04-19T17:31:05.967Z,0.52
2024-04-19T17:41:36.943Z,0.40
2024-04-19T17:44:22.049Z,0.40
2024-04-19T17:47:07.381Z,0.43
2024-04-19T17:49:52.327Z,0.20
2024-04-19T17:52:37.539Z,0.55
2024-04-19T17:55:22.786Z,0.55
2024-04-19T18:03:25.851Z,0.83
2024-04-19T18:06:10.658Z,0.57
2024-04-19T18:08:55.834Z,1.00
2024-04-19T18:11:41.066Z,0.60
2024-04-19T18:14:26.177Z,0.80
2024-04-19T18:17:11.381Z,1.05
2024-04-19T18:25:18.256Z,1.10
2024-04-19T18:28:03.485Z,1.20
2024-04-19T18:30:50.263Z,0.65
2024-04-19T18:33:35.339Z,0.40
2024-04-19T18:36:20.564Z,0.30
2024-04-19T18:39:05.572Z,1.42
2024-04-19T18:47:08.797Z,1.00
2024-04-19T18:49:53.653Z,0.50
2024-04-19T18:52:39.440Z,1.00
2024-04-19T18:55:24.183Z,1.02
2024-04-19T18:58:09.456Z,0.80
2024-04-19T19:00:54.630Z,0.88
2024-04-19T19:09:04.350Z,1.83
2024-04-19T19:11:50.006Z,1.67
2024-04-19T19:14:36.493Z,2.15
2024-04-19T19:17:21.939Z,1.73
2024-04-19T19:20:07.961Z,2.00
2024-04-19T19:22:53.090Z,1.88
2024-04-19T19:31:00.257Z,1.27
2024-04-19T19:33:45.447Z,3.30
2024-04-19T19:36:30.638Z,1.98
2024-04-19T19:39:15.918Z,1.25
2024-04-19T19:42:01.585Z,1.23
2024-04-19T19:44:49.930Z,2.95
2024-04-19T19:52:57.446Z,1.30
2024-04-19T19:55:43.020Z,1.92
2024-04-19T19:58:27.892Z,2.10
2024-04-19T20:01:13.425Z,1.90
2024-04-19T20:03:58.273Z,2.35
2024-04-19T20:09:23.811Z,1.60
2024-04-19T20:12:09.642Z,1.15
2024-04-19T20:14:54.576Z,1.60
2024-04-19T20:17:39.877Z,2.10
2024-04-19T20:20:24.932Z,3.10
2024-04-19T20:23:09.703Z,1.40
2024-04-19T20:31:17.697Z,1.27
2024-04-19T20:34:03.047Z,1.17
2024-04-19T20:36:47.970Z,1.80
2024-04-19T20:39:33.039Z,2.47
2024-04-19T20:42:20.589Z,1.38
2024-04-19T20:53:29.543Z,0.90
2024-04-19T20:56:14.703Z,2.95
2024-04-19T20:58:59.916Z,2.85
2024-04-19T21:01:45.924Z,1.70
2024-04-19T21:04:30.977Z,2.28
2024-04-19T21:07:16.098Z,1.73
2024-04-19T21:15:41.264Z,1.10
2024-04-19T21:18:26.656Z,1.73
2024-04-19T21:21:11.703Z,1.55
2024-04-19T21:23:56.645Z,1.63
2024-04-19T21:26:41.894Z,1.77
2024-04-19T21:29:27.633Z,0.90
2024-04-19T21:37:35.176Z,0.80
2024-04-19T21:40:20.306Z,1.65
2024-04-19T21:43:05.407Z,1.08
2024-04-19T21:45:50.625Z,1.50
2024-04-19T21:48:36.949Z,2.40
2024-04-19T21:51:23.255Z,1.60
2024-04-19T21:59:32.438Z,2.60
2024-04-19T22:02:18.489Z,2.28
2024-04-19T22:05:03.803Z,1.33
2024-04-19T22:07:49.054Z,1.40
2024-04-19T22:10:37.997Z,2.40
2024-04-19T22:13:23.878Z,1.83
2024-04-19T22:21:31.445Z,1.57
2024-04-19T22:24:16.399Z,1.67
2024-04-19T22:27:01.447Z,2.65
2024-04-19T22:29:46.777Z,1.17
2024-04-19T22:32:32.417Z,2.28
2024-04-19T22:35:17.477Z,0.82
2024-04-19T22:43:26.888Z,1.03
2024-04-19T22:46:13.112Z,1.15
2024-04-19T22:48:58.266Z,1.10
2024-04-19T22:51:43.477Z,2.08
2024-04-19T22:54:28.965Z,2.40
2024-04-19T23:05:51.602Z,1.27
2024-04-19T23:08:37.124Z,1.48
2024-04-19T23:11:22.510Z,1.23
2024-04-19T23:14:07.997Z,1.40
2024-04-19T23:16:53.068Z,0.80
2024-04-19T23:19:38.114Z,0.85
2024-04-19T23:27:45.631Z,0.90
2024-04-19T23:30:31.001Z,0.95
2024-04-19T23:33:16.071Z,1.10
2024-04-19T23:36:02.411Z,1.08
2024-04-19T23:38:47.636Z,0.90
2024-04-19T23:41:32.677Z,0.93
2024-04-19T23:49:36.034Z,0.90
2024-04-19T23:52:20.729Z,0.98
2024-04-19T23:55:06.513Z,1.02
2024-04-19T23:57:51.510Z,0.93
